sensor_id;sensor_type;location;lat;lon;timestamp;pressure;altitude;pressure_sealevel;temperature;humidity
76046;BME280;64741;41.730;44.788;2023-02-28T00:01:59;999.8;;;22.4;40.2
76046;BME280;64741;41.730;44.788;2023-02-28T00:06:59;999.9;;;22.4;40.2
76046;BME280;64741;41.730;44.788;2023-02-28T00:11:57;999.8;;;22.4;40.2
76046;BME280;64741;41.730;44.788;2023-02-28T00:17:03;999.8;;;22.3;39.9
76046;BME280;64741;41.730;44.788;2023-02-28T00:21:55;999.8;;;22.3;39.8
76046;BME280;64741;41.730;44.788;2023-02-28T00:26:57;999.8;;;22.3;39.8
76046;BME280;64741;41.730;44.788;2023-02-28T00:31:57;999.8;;;22.3;39.8
76046;BME280;64741;41.730;44.788;2023-02-28T00:36:55;999.8;;;22.3;39.8
76046;BME280;64741;41.730;44.788;2023-02-28T00:41:49;999.9;;;22.3;39.8
76046;BME280;64741;41.730;44.788;2023-02-28T00:47:01;999.9;;;22.3;39.7
76046;BME280;64741;41.730;44.788;2023-02-28T00:51:59;999.8;;;22.3;39.6
76046;BME280;64741;41.730;44.788;2023-02-28T00:56:59;999.8;;;22.3;39.7
76046;BME280;64741;41.730;44.788;2023-02-28T01:01:57;999.9;;;22.3;39.8
76046;BME280;64741;41.730;44.788;2023-02-28T01:06:57;999.9;;;22.3;39.8
76046;BME280;64741;41.730;44.788;2023-02-28T01:12:03;999.9;;;22.3;39.8
76046;BME280;64741;41.730;44.788;2023-02-28T01:16:57;999.9;;;22.3;39.8
76046;BME280;64741;41.730;44.788;2023-02-28T01:22:00;999.9;;;22.3;39.6
76046;BME280;64741;41.730;44.788;2023-02-28T01:26:57;999.9;;;22.2;39.7
76046;BME280;64741;41.730;44.788;2023-02-28T01:31:53;999.9;;;22.2;39.7
76046;BME280;64741;41.730;44.788;2023-02-28T01:37:01;999.9;;;22.2;39.5
76046;BME280;64741;41.730;44.788;2023-02-28T01:41:55;1000;;;22.2;39.5
76046;BME280;64741;41.730;44.788;2023-02-28T01:46:59;1000;;;22.2;39.6
76046;BME280;64741;41.730;44.788;2023-02-28T01:51:59;1000.1;;;22.2;39.7
76046;BME280;64741;41.730;44.788;2023-02-28T01:56:56;1000.1;;;22.2;39.7
76046;BME280;64741;41.730;44.788;2023-02-28T02:02:01;1000.1;;;22.2;39.6
76046;BME280;64741;41.730;44.788;2023-02-28T02:06:59;1000.1;;;22.2;39.6
76046;BME280;64741;41.730;44.788;2023-02-28T02:11:59;1000.1;;;22.2;39.5
76046;BME280;64741;41.730;44.788;2023-02-28T02:17:01;1000.1;;;22.2;39.6
76046;BME280;64741;41.730;44.788;2023-02-28T02:22:09;1000.2;;;22.2;39.6
76046;BME280;64741;41.730;44.788;2023-02-28T02:27:06;1000.2;;;22.2;39.6
76046;BME280;64741;41.730;44.788;2023-02-28T02:32:35;1000.2;;;22.2;39.6
76046;BME280;64741;41.730;44.788;2023-02-28T02:37:02;1000.3;;;22.2;39.5
76046;BME280;64741;41.730;44.788;2023-02-28T02:41:58;1000.3;;;22.2;39.2
76046;BME280;64741;41.730;44.788;2023-02-28T02:46:58;1000.3;;;22.2;39.1
76046;BME280;64741;41.730;44.788;2023-02-28T02:52:04;1000.3;;;22.2;39.1
76046;BME280;64741;41.730;44.788;2023-02-28T02:56:58;1000.3;;;22.2;39.4
76046;BME280;64741;41.730;44.788;2023-02-28T03:01:58;1000.3;;;22.2;39.5
76046;BME280;64741;41.730;44.788;2023-02-28T03:06:35;1000.3;;;22.2;39.6
76046;BME280;64741;41.730;44.788;2023-02-28T03:11:55;1000.3;;;22.2;39.6
76046;BME280;64741;41.730;44.788;2023-02-28T03:17:07;1000.2;;;22.1;39.6
76046;BME280;64741;41.730;44.788;2023-02-28T03:22:03;1000.2;;;22.1;39.2
76046;BME280;64741;41.730;44.788;2023-02-28T03:27:02;1000.1;;;22.1;39.2
76046;BME280;64741;41.730;44.788;2023-02-28T03:31:58;1000.1;;;22.1;39.5
76046;BME280;64741;41.730;44.788;2023-02-28T03:36:54;1000.1;;;22.1;39.4
76046;BME280;64741;41.730;44.788;2023-02-28T03:42:04;1000;;;22.1;39.3
76046;BME280;64741;41.730;44.788;2023-02-28T03:46:58;1000.1;;;22.1;39
76046;BME280;64741;41.730;44.788;2023-02-28T03:51:57;1000.1;;;22.1;39.1
76046;BME280;64741;41.730;44.788;2023-02-28T03:56:58;1000.1;;;22.1;39.2
76046;BME280;64741;41.730;44.788;2023-02-28T04:01:55;1000.2;;;22.1;39.1
76046;BME280;64741;41.730;44.788;2023-02-28T04:07:04;1000.2;;;22.1;38.8
76046;BME280;64741;41.730;44.788;2023-02-28T04:11:59;1000.2;;;22.1;38.6
76046;BME280;64741;41.730;44.788;2023-02-28T04:16:59;1000.3;;;22;38.7
76046;BME280;64741;41.730;44.788;2023-02-28T04:21:59;1000.3;;;22;38.4
76046;BME280;64741;41.730;44.788;2023-02-28T04:26:56;1000.2;;;22;38.4
76046;BME280;64741;41.730;44.788;2023-02-28T04:32:03;1000.2;;;22;38.7
76046;BME280;64741;41.730;44.788;2023-02-28T04:36:57;1000.3;;;22;38.5
76046;BME280;64741;41.730;44.788;2023-02-28T04:41:59;1000.4;;;22;38.3
76046;BME280;64741;41.730;44.788;2023-02-28T04:46:57;1000.5;;;22;38.3
76046;BME280;64741;41.730;44.788;2023-02-28T04:51:55;1000.5;;;22.1;38.7
76046;BME280;64741;41.730;44.788;2023-02-28T04:56:59;1000.5;;;22.1;38.8
76046;BME280;64741;41.730;44.788;2023-02-28T05:01:55;1000.5;;;22.1;39
76046;BME280;64741;41.730;44.788;2023-02-28T05:06:55;1000.5;;;22.1;38.9
76046;BME280;64741;41.730;44.788;2023-02-28T05:11:57;1000.5;;;22.1;38.9
76046;BME280;64741;41.730;44.788;2023-02-28T05:16:55;1000.5;;;22;38.9
76046;BME280;64741;41.730;44.788;2023-02-28T05:22:01;1000.5;;;22;38.9
76046;BME280;64741;41.730;44.788;2023-02-28T05:26:55;1000.5;;;22;38.9
76046;BME280;64741;41.730;44.788;2023-02-28T05:31:57;1000.5;;;22;38.8
76046;BME280;64741;41.730;44.788;2023-02-28T05:36:57;1000.4;;;22;38.7
76046;BME280;64741;41.730;44.788;2023-02-28T05:41:53;1000.3;;;22;38.6
76046;BME280;64741;41.730;44.788;2023-02-28T05:47:01;1000.3;;;22;38.7
76046;BME280;64741;41.730;44.788;2023-02-28T05:51:53;1000.3;;;22;38.8
76046;BME280;64741;41.730;44.788;2023-02-28T05:56:57;1000.3;;;22;38.6
76046;BME280;64741;41.730;44.788;2023-02-28T06:01:55;1000.2;;;21.9;38.4
76046;BME280;64741;41.730;44.788;2023-02-28T06:06:53;1000.2;;;21.9;38.4
76046;BME280;64741;41.730;44.788;2023-02-28T06:11:31;1000.2;;;21.9;38.4
76046;BME280;64741;41.730;44.788;2023-02-28T06:16:53;1000.1;;;21.9;38.3
76046;BME280;64741;41.730;44.788;2023-02-28T06:21:57;1000.1;;;21.9;38.4
76046;BME280;64741;41.730;44.788;2023-02-28T06:26:57;1000;;;21.9;38.6
76046;BME280;64741;41.730;44.788;2023-02-28T06:31:53;999.9;;;21.9;38.7
76046;BME280;64741;41.730;44.788;2023-02-28T06:36:59;999.8;;;21.9;38.8
76046;BME280;64741;41.730;44.788;2023-02-28T06:41:55;999.8;;;21.9;38.7
76046;BME280;64741;41.730;44.788;2023-02-28T06:46:57;999.7;;;22;38.7
76046;BME280;64741;41.730;44.788;2023-02-28T06:51:44;999.6;;;22.1;38.5
76046;BME280;64741;41.730;44.788;2023-02-28T06:56:53;999.4;;;22.1;38.5
76046;BME280;64741;41.730;44.788;2023-02-28T07:02:01;999.3;;;22.2;38.4
76046;BME280;64741;41.730;44.788;2023-02-28T07:06:54;999.2;;;22.3;38.4
76046;BME280;64741;41.730;44.788;2023-02-28T07:11:57;999.1;;;22.3;38.3
76046;BME280;64741;41.730;44.788;2023-02-28T07:16:57;999.1;;;22.4;38.3
76046;BME280;64741;41.730;44.788;2023-02-28T07:21:55;999;;;22.5;38.2
76046;BME280;64741;41.730;44.788;2023-02-28T07:26:47;998.9;;;22.5;38.2
76046;BME280;64741;41.730;44.788;2023-02-28T07:31:55;998.8;;;22.5;38.3
76046;BME280;64741;41.730;44.788;2023-02-28T07:36:57;998.7;;;22.6;38.5
76046;BME280;64741;41.730;44.788;2023-02-28T07:41:57;998.6;;;22.7;40.2
76046;BME280;64741;41.730;44.788;2023-02-28T07:46:53;998.6;;;22.7;42.1
76046;BME280;64741;41.730;44.788;2023-02-28T07:52:01;998.6;;;22.8;43
76046;BME280;64741;41.730;44.788;2023-02-28T07:56:53;998.5;;;22.9;44
76046;BME280;64741;41.730;44.788;2023-02-28T08:01:53;998.5;;;23;44.8
76046;BME280;64741;41.730;44.788;2023-02-28T08:06:57;998.4;;;23.1;44.2
76046;BME280;64741;41.730;44.788;2023-02-28T08:11:53;998.4;;;23.1;43.5
76046;BME280;64741;41.730;44.788;2023-02-28T08:16:57;998.3;;;23.1;42.9
76046;BME280;64741;41.730;44.788;2023-02-28T08:21:53;998.1;;;23.2;42.2
76046;BME280;64741;41.730;44.788;2023-02-28T08:26:55;997.9;;;23.2;41.7
76046;BME280;64741;41.730;44.788;2023-02-28T08:31:55;997.8;;;23.2;41.3
76046;BME280;64741;41.730;44.788;2023-02-28T08:36:53;997.8;;;23.2;40.9
76046;BME280;64741;41.730;44.788;2023-02-28T08:41:59;997.7;;;23.3;41
76046;BME280;64741;41.730;44.788;2023-02-28T08:46:39;997.6;;;23.3;41
76046;BME280;64741;41.730;44.788;2023-02-28T08:51:55;997.5;;;23.4;41.4
76046;BME280;64741;41.730;44.788;2023-02-28T08:56:55;997.4;;;23.4;42.6
76046;BME280;64741;41.730;44.788;2023-02-28T09:01:55;997.3;;;23.5;43.9
76046;BME280;64741;41.730;44.788;2023-02-28T09:06:59;997.3;;;23.6;43.9
76046;BME280;64741;41.730;44.788;2023-02-28T09:11:54;997.1;;;23.7;43.5
76046;BME280;64741;41.730;44.788;2023-02-28T09:16:53;997;;;23.7;43.5
76046;BME280;64741;41.730;44.788;2023-02-28T09:21:55;996.9;;;23.8;43
76046;BME280;64741;41.730;44.788;2023-02-28T09:26:55;996.8;;;23.8;42.3
76046;BME280;64741;41.730;44.788;2023-02-28T09:31:59;996.7;;;23.8;41.3
76046;BME280;64741;41.730;44.788;2023-02-28T09:36:53;996.6;;;23.7;41.5
76046;BME280;64741;41.730;44.788;2023-02-28T09:41:55;996.5;;;23.8;41.7
76046;BME280;64741;41.730;44.788;2023-02-28T09:46:56;996.4;;;23.8;41.1
76046;BME280;64741;41.730;44.788;2023-02-28T09:51:54;996.3;;;23.8;41
76046;BME280;64741;41.730;44.788;2023-02-28T09:57:00;996.2;;;23.8;41.2
76046;BME280;64741;41.730;44.788;2023-02-28T10:01:54;996;;;23.8;41.2
76046;BME280;64741;41.730;44.788;2023-02-28T10:06:55;995.9;;;23.8;41.4
76046;BME280;64741;41.730;44.788;2023-02-28T10:12:04;995.8;;;23.8;41.5
76046;BME280;64741;41.730;44.788;2023-02-28T10:16:58;995.7;;;23.8;41.4
76046;BME280;64741;41.730;44.788;2023-02-28T10:21:59;995.6;;;23.8;41.3
76046;BME280;64741;41.730;44.788;2023-02-28T10:26:51;995.5;;;23.8;41.1
76046;BME280;64741;41.730;44.788;2023-02-28T10:31:58;995.5;;;23.7;41.2
76046;BME280;64741;41.730;44.788;2023-02-28T10:36:55;995.5;;;23.7;40.9
76046;BME280;64741;41.730;44.788;2023-02-28T10:41:57;995.4;;;23.7;40.8
76046;BME280;64741;41.730;44.788;2023-02-28T10:46:59;995.4;;;23.7;40.8
76046;BME280;64741;41.730;44.788;2023-02-28T10:51:54;995.5;;;23.7;40.8
76046;BME280;64741;41.730;44.788;2023-02-28T10:56:37;995.4;;;23.7;40.8
76046;BME280;64741;41.730;44.788;2023-02-28T11:01:55;995.4;;;23.8;40.7
76046;BME280;64741;41.730;44.788;2023-02-28T11:06:57;995.4;;;23.8;40.5
76046;BME280;64741;41.730;44.788;2023-02-28T11:11:57;995.4;;;23.8;40.3
76046;BME280;64741;41.730;44.788;2023-02-28T11:16:39;995.4;;;23.8;40.2
76046;BME280;64741;41.730;44.788;2023-02-28T11:21:56;995.4;;;23.8;39.9
76046;BME280;64741;41.730;44.788;2023-02-28T11:26:53;995.4;;;23.8;40
76046;BME280;64741;41.730;44.788;2023-02-28T11:32:00;995.4;;;23.8;40.2
76046;BME280;64741;41.730;44.788;2023-02-28T11:37:01;995.4;;;23.8;39.9
76046;BME280;64741;41.730;44.788;2023-02-28T11:41:58;995.3;;;23.7;39.4
76046;BME280;64741;41.730;44.788;2023-02-28T11:46:58;995.3;;;23.7;39.4
76046;BME280;64741;41.730;44.788;2023-02-28T11:51:56;995.3;;;23.7;38.8
76046;BME280;64741;41.730;44.788;2023-02-28T11:56:58;995.2;;;23.6;38.5
76046;BME280;64741;41.730;44.788;2023-02-28T12:02:05;995.1;;;23.6;38.1
76046;BME280;64741;41.730;44.788;2023-02-28T12:06:52;995.1;;;23.5;38
76046;BME280;64741;41.730;44.788;2023-02-28T12:11:58;995;;;23.5;37.9
76046;BME280;64741;41.730;44.788;2023-02-28T12:16:59;995;;;23.5;37.5
76046;BME280;64741;41.730;44.788;2023-02-28T12:22:05;995;;;23.4;37.3
76046;BME280;64741;41.730;44.788;2023-02-28T12:27:00;994.9;;;23.4;37.3
76046;BME280;64741;41.730;44.788;2023-02-28T12:31:56;994.9;;;23.4;37.4
76046;BME280;64741;41.730;44.788;2023-02-28T12:37:00;995;;;23.3;37.4
76046;BME280;64741;41.730;44.788;2023-02-28T12:41:59;995;;;23.3;37.7
76046;BME280;64741;41.730;44.788;2023-02-28T12:47:00;995.1;;;23.3;37.9
76046;BME280;64741;41.730;44.788;2023-02-28T12:51:35;995.1;;;23.3;38.3
76046;BME280;64741;41.730;44.788;2023-02-28T12:56:57;995.1;;;23.3;38
76046;BME280;64741;41.730;44.788;2023-02-28T13:02:02;995.1;;;23.3;37.7
76046;BME280;64741;41.730;44.788;2023-02-28T13:07:08;995.1;;;23.2;37.6
76046;BME280;64741;41.730;44.788;2023-02-28T13:11:55;995.2;;;23.2;37.9
76046;BME280;64741;41.730;44.788;2023-02-28T13:17:00;995.2;;;23.2;37.6
76046;BME280;64741;41.730;44.788;2023-02-28T13:21:55;995.2;;;23.2;37.6
76046;BME280;64741;41.730;44.788;2023-02-28T13:27:24;995.2;;;23.2;38.1
76046;BME280;64741;41.730;44.788;2023-02-28T13:32:34;995.2;;;23.2;38
76046;BME280;64741;41.730;44.788;2023-02-28T13:37:04;995.3;;;23.2;38.4
76046;BME280;64741;41.730;44.788;2023-02-28T13:42:05;995.2;;;23.1;38.4
76046;BME280;64741;41.730;44.788;2023-02-28T13:47:29;995.3;;;23.1;38.5
76046;BME280;64741;41.730;44.788;2023-02-28T13:52:02;995.3;;;23.1;38.6
76046;BME280;64741;41.730;44.788;2023-02-28T13:57:02;995.3;;;23.1;38.6
76046;BME280;64741;41.730;44.788;2023-02-28T14:01:59;995.4;;;23.1;38.8
76046;BME280;64741;41.730;44.788;2023-02-28T14:06:59;995.4;;;23.1;38.7
76046;BME280;64741;41.730;44.788;2023-02-28T14:11:57;995.5;;;23;38.7
76046;BME280;64741;41.730;44.788;2023-02-28T14:16:59;995.6;;;23;38.2
76046;BME280;64741;41.730;44.788;2023-02-28T14:21:34;995.7;;;23;38.3
76046;BME280;64741;41.730;44.788;2023-02-28T14:26:56;995.7;;;23;38.5
76046;BME280;64741;41.730;44.788;2023-02-28T14:31:58;995.7;;;23;38.3
76046;BME280;64741;41.730;44.788;2023-02-28T14:36:58;995.7;;;22.9;38.8
76046;BME280;64741;41.730;44.788;2023-02-28T14:41:57;995.8;;;22.9;38.7
76046;BME280;64741;41.730;44.788;2023-02-28T14:47:00;995.8;;;22.9;38.8
76046;BME280;64741;41.730;44.788;2023-02-28T14:52:01;995.8;;;22.9;39.3
76046;BME280;64741;41.730;44.788;2023-02-28T14:56:59;995.8;;;22.9;39.5
76046;BME280;64741;41.730;44.788;2023-02-28T15:02:30;995.8;;;22.9;39.7
76046;BME280;64741;41.730;44.788;2023-02-28T15:07:13;995.8;;;22.9;39.7
76046;BME280;64741;41.730;44.788;2023-02-28T15:12:01;995.9;;;22.9;39.8
76046;BME280;64741;41.730;44.788;2023-02-28T15:16:56;996;;;22.9;39.8
76046;BME280;64741;41.730;44.788;2023-02-28T15:21:59;996;;;22.9;39.8
76046;BME280;64741;41.730;44.788;2023-02-28T15:26:58;996.1;;;22.9;39.8
76046;BME280;64741;41.730;44.788;2023-02-28T15:32:00;996.1;;;22.9;39.8
76046;BME280;64741;41.730;44.788;2023-02-28T15:36:59;996.2;;;22.9;39.5
76046;BME280;64741;41.730;44.788;2023-02-28T15:42:09;996.2;;;22.9;39.9
76046;BME280;64741;41.730;44.788;2023-02-28T15:47:00;996.2;;;22.8;39.9
76046;BME280;64741;41.730;44.788;2023-02-28T15:51:58;996.2;;;22.8;39.9
76046;BME280;64741;41.730;44.788;2023-02-28T15:56:57;996.3;;;22.8;39.9
76046;BME280;64741;41.730;44.788;2023-02-28T16:02:04;996.3;;;22.8;40
76046;BME280;64741;41.730;44.788;2023-02-28T16:07:00;996.3;;;22.8;40
76046;BME280;64741;41.730;44.788;2023-02-28T16:11:59;996.3;;;22.8;40
76046;BME280;64741;41.730;44.788;2023-02-28T16:17:02;996.3;;;22.8;40
76046;BME280;64741;41.730;44.788;2023-02-28T16:21:59;996.2;;;22.8;40.1
76046;BME280;64741;41.730;44.788;2023-02-28T16:26:59;996.2;;;22.8;40.1
76046;BME280;64741;41.730;44.788;2023-02-28T16:31:55;996.2;;;22.8;40.2
76046;BME280;64741;41.730;44.788;2023-02-28T16:36:57;996.2;;;22.8;40.2
76046;BME280;64741;41.730;44.788;2023-02-28T16:41:55;996.2;;;22.8;40.2
76046;BME280;64741;41.730;44.788;2023-02-28T16:47:00;996.3;;;22.8;40.2
76046;BME280;64741;41.730;44.788;2023-02-28T16:51:59;996.3;;;22.8;40.3
76046;BME280;64741;41.730;44.788;2023-02-28T16:56:55;996.4;;;22.8;40.3
76046;BME280;64741;41.730;44.788;2023-02-28T17:01:59;996.3;;;22.8;40.3
76046;BME280;64741;41.730;44.788;2023-02-28T17:06:57;996.3;;;22.8;40.3
76046;BME280;64741;41.730;44.788;2023-02-28T17:11:59;996.3;;;22.8;40.3
76046;BME280;64741;41.730;44.788;2023-02-28T17:16:57;996.4;;;22.8;40.4
76046;BME280;64741;41.730;44.788;2023-02-28T17:21:59;996.4;;;22.8;40.4
76046;BME280;64741;41.730;44.788;2023-02-28T17:26:55;996.5;;;22.8;40.4
76046;BME280;64741;41.730;44.788;2023-02-28T17:31:55;996.4;;;22.7;40.4
76046;BME280;64741;41.730;44.788;2023-02-28T17:36:45;996.4;;;22.7;40.4
76046;BME280;64741;41.730;44.788;2023-02-28T17:41:57;996.3;;;22.7;40.4
76046;BME280;64741;41.730;44.788;2023-02-28T17:46:58;996.3;;;22.7;40.4
76046;BME280;64741;41.730;44.788;2023-02-28T17:51:57;996.3;;;22.7;40.4
76046;BME280;64741;41.730;44.788;2023-02-28T17:56:55;996.3;;;22.7;40.4
76046;BME280;64741;41.730;44.788;2023-02-28T18:01:59;996.3;;;22.7;40.4
76046;BME280;64741;41.730;44.788;2023-02-28T18:06:55;996.2;;;22.7;40.4
76046;BME280;64741;41.730;44.788;2023-02-28T18:11:57;996.2;;;22.7;40.4
76046;BME280;64741;41.730;44.788;2023-02-28T18:16:57;996.3;;;22.7;40.3
76046;BME280;64741;41.730;44.788;2023-02-28T18:21:53;996.3;;;22.7;40.3
76046;BME280;64741;41.730;44.788;2023-02-28T18:26:59;996.3;;;22.7;40.4
76046;BME280;64741;41.730;44.788;2023-02-28T18:31:55;996.3;;;22.7;40.4
76046;BME280;64741;41.730;44.788;2023-02-28T18:37:00;996.4;;;22.7;40.3
76046;BME280;64741;41.730;44.788;2023-02-28T18:41:58;996.5;;;22.7;40.3
76046;BME280;64741;41.730;44.788;2023-02-28T18:46:55;996.4;;;22.7;40.3
76046;BME280;64741;41.730;44.788;2023-02-28T18:52:01;996.3;;;22.7;40.3
76046;BME280;64741;41.730;44.788;2023-02-28T18:56:55;996.4;;;22.7;40.3
76046;BME280;64741;41.730;44.788;2023-02-28T19:01:57;996.4;;;22.6;40.3
76046;BME280;64741;41.730;44.788;2023-02-28T19:06:57;996.4;;;22.6;40.2
76046;BME280;64741;41.730;44.788;2023-02-28T19:11:55;996.4;;;22.6;40.3
76046;BME280;64741;41.730;44.788;2023-02-28T19:17:01;996.3;;;22.6;40.3
76046;BME280;64741;41.730;44.788;2023-02-28T19:21:57;996.3;;;22.6;40.2
76046;BME280;64741;41.730;44.788;2023-02-28T19:26:55;996.4;;;22.6;40.2
76046;BME280;64741;41.730;44.788;2023-02-28T19:31:55;996.4;;;22.6;40.2
76046;BME280;64741;41.730;44.788;2023-02-28T19:36:55;996.4;;;22.6;40.2
76046;BME280;64741;41.730;44.788;2023-02-28T19:42:01;996.4;;;22.6;40.2
76046;BME280;64741;41.730;44.788;2023-02-28T19:46:57;996.4;;;22.6;40.2
76046;BME280;64741;41.730;44.788;2023-02-28T19:51:59;996.4;;;22.6;40.2
76046;BME280;64741;41.730;44.788;2023-02-28T19:56:55;996.4;;;22.6;40.2
76046;BME280;64741;41.730;44.788;2023-02-28T20:01:53;996.3;;;22.6;40.2
76046;BME280;64741;41.730;44.788;2023-02-28T20:07:01;996.3;;;22.6;40.2
76046;BME280;64741;41.730;44.788;2023-02-28T20:11:57;996.3;;;22.6;40.2
76046;BME280;64741;41.730;44.788;2023-02-28T20:16:59;996.3;;;22.6;40.2
76046;BME280;64741;41.730;44.788;2023-02-28T20:21:55;996.3;;;22.6;40.2
76046;BME280;64741;41.730;44.788;2023-02-28T20:26:53;996.4;;;22.6;40.2
76046;BME280;64741;41.730;44.788;2023-02-28T20:32:01;996.3;;;22.5;40.2
76046;BME280;64741;41.730;44.788;2023-02-28T20:36:57;996.3;;;22.5;40.2
76046;BME280;64741;41.730;44.788;2023-02-28T20:41:59;996.3;;;22.5;40.2
76046;BME280;64741;41.730;44.788;2023-02-28T20:46:57;996.3;;;22.5;40.2
76046;BME280;64741;41.730;44.788;2023-02-28T20:51:55;996.3;;;22.5;40.2
76046;BME280;64741;41.730;44.788;2023-02-28T20:56:59;996.4;;;22.5;40.2
76046;BME280;64741;41.730;44.788;2023-02-28T21:01:57;996.3;;;22.5;40.2
76046;BME280;64741;41.730;44.788;2023-02-28T21:06:59;996.3;;;22.5;40.2
76046;BME280;64741;41.730;44.788;2023-02-28T21:11:55;996.3;;;22.5;40.2
76046;BME280;64741;41.730;44.788;2023-02-28T21:16:55;996.3;;;22.5;40.2
76046;BME280;64741;41.730;44.788;2023-02-28T21:22:01;996.3;;;22.5;40.2
76046;BME280;64741;41.730;44.788;2023-02-28T21:26:53;996.2;;;22.5;40.1
76046;BME280;64741;41.730;44.788;2023-02-28T21:31:59;996.2;;;22.5;40.1
76046;BME280;64741;41.730;44.788;2023-02-28T21:36:55;996.2;;;22.5;40.2
76046;BME280;64741;41.730;44.788;2023-02-28T21:41:55;996.1;;;22.5;40.2
76046;BME280;64741;41.730;44.788;2023-02-28T21:46:59;996;;;22.5;40.2
76046;BME280;64741;41.730;44.788;2023-02-28T21:51:55;996;;;22.5;40.1
76046;BME280;64741;41.730;44.788;2023-02-28T21:56:59;996;;;22.5;40.1
76046;BME280;64741;41.730;44.788;2023-02-28T22:01:55;996;;;22.5;40.1
76046;BME280;64741;41.730;44.788;2023-02-28T22:06:55;996;;;22.5;40.1
76046;BME280;64741;41.730;44.788;2023-02-28T22:12:01;996;;;22.5;40.1
76046;BME280;64741;41.730;44.788;2023-02-28T22:16:53;996;;;22.4;40.1
76046;BME280;64741;41.730;44.788;2023-02-28T22:21:59;996;;;22.4;40.1
76046;BME280;64741;41.730;44.788;2023-02-28T22:26:55;996;;;22.4;40.1
76046;BME280;64741;41.730;44.788;2023-02-28T22:31:55;995.9;;;22.4;40.1
76046;BME280;64741;41.730;44.788;2023-02-28T22:37:01;995.9;;;22.4;40.1
76046;BME280;64741;41.730;44.788;2023-02-28T22:41:53;995.9;;;22.4;40.1
76046;BME280;64741;41.730;44.788;2023-02-28T22:46:59;995.9;;;22.4;40.1
76046;BME280;64741;41.730;44.788;2023-02-28T22:51:57;995.9;;;22.4;40.1
76046;BME280;64741;41.730;44.788;2023-02-28T22:56:51;995.9;;;22.4;40
76046;BME280;64741;41.730;44.788;2023-02-28T23:02:01;995.9;;;22.4;40
76046;BME280;64741;41.730;44.788;2023-02-28T23:06:55;995.9;;;22.4;40
76046;BME280;64741;41.730;44.788;2023-02-28T23:11:59;995.8;;;22.4;40
76046;BME280;64741;41.730;44.788;2023-02-28T23:16:55;995.8;;;22.4;40
76046;BME280;64741;41.730;44.788;2023-02-28T23:21:53;995.8;;;22.4;40
76046;BME280;64741;41.730;44.788;2023-02-28T23:26:58;995.8;;;22.4;39.9
76046;BME280;64741;41.730;44.788;2023-02-28T23:31:39;995.8;;;22.4;39.9
76046;BME280;64741;41.730;44.788;2023-02-28T23:36:43;995.8;;;22.4;39.9
76046;BME280;64741;41.730;44.788;2023-02-28T23:41:51;995.7;;;22.4;39.9
76046;BME280;64741;41.730;44.788;2023-02-28T23:46:51;995.6;;;22.3;39.8
76046;BME280;64741;41.730;44.788;2023-02-28T23:51:57;995.7;;;22.3;39.7
76046;BME280;64741;41.730;44.788;2023-02-28T23:56:51;995.7;;;22.3;39.8
